createdAt,value
2022-10-28T00:01:24.923Z,6.33
2022-10-28T00:03:57.932Z,6.37
2022-10-28T00:06:29.123Z,6.33
2022-10-28T00:08:57.437Z,6.31
2022-10-28T00:11:28.079Z,6.31
2022-10-28T00:13:57.821Z,6.34
2022-10-28T00:16:29.442Z,6.35
2022-10-28T00:18:59.651Z,6.32
2022-10-28T00:21:30.840Z,6.31
2022-10-28T00:23:59.600Z,6.32
2022-10-28T00:26:30.760Z,6.32
2022-10-28T00:29:01.633Z,6.33
2022-10-28T00:31:31.299Z,6.30
2022-10-28T00:34:00.318Z,6.28
2022-10-28T00:36:34.579Z,6.30
2022-10-28T00:39:05.158Z,6.31
2022-10-28T00:41:38.169Z,6.22
2022-10-28T00:44:46.762Z,6.25
2022-10-28T00:47:28.430Z,6.22
2022-10-28T00:50:00.420Z,6.24
2022-10-28T00:52:30.068Z,6.25
2022-10-28T00:55:00.348Z,6.23
2022-10-28T00:57:32.612Z,6.27
2022-10-28T01:00:01.870Z,6.31
2022-10-28T01:02:30.500Z,6.31
2022-10-28T01:04:58.770Z,6.28
2022-10-28T01:07:27.161Z,6.31
2022-10-28T01:09:55.012Z,6.29
2022-10-28T01:12:54.066Z,6.25
2022-10-28T01:15:27.608Z,6.24
2022-10-28T01:18:01.321Z,6.25
2022-10-28T01:20:45.326Z,6.23
2022-10-28T01:23:47.714Z,6.18
2022-10-28T01:26:34.235Z,6.17
2022-10-28T01:29:20.823Z,6.16
2022-10-28T01:31:55.326Z,6.16
2022-10-28T01:34:31.900Z,6.15
2022-10-28T01:37:38.741Z,6.17
2022-10-28T01:40:24.211Z,6.17
2022-10-28T01:42:59.784Z,6.15
2022-10-28T01:45:34.518Z,6.13
2022-10-28T01:48:09.133Z,6.10
2022-10-28T01:50:58.646Z,6.08
2022-10-28T01:53:32.136Z,6.02
2022-10-28T01:56:04.371Z,6.05
2022-10-28T01:58:33.446Z,6.02
2022-10-28T02:01:05.548Z,6.06
2022-10-28T02:03:34.149Z,6.08
2022-10-28T02:06:07.891Z,6.03
2022-10-28T02:08:45.220Z,6.09
2022-10-28T02:11:22.063Z,6.07
2022-10-28T02:14:21.279Z,6.04
2022-10-28T02:17:13.539Z,5.98
2022-10-28T02:19:48.170Z,6.02
2022-10-28T02:22:23.754Z,5.96
2022-10-28T02:25:08.278Z,5.95
2022-10-28T02:27:55.443Z,5.95
2022-10-28T02:30:30.342Z,5.93
2022-10-28T02:33:01.803Z,5.94
2022-10-28T02:36:18.915Z,5.95
2022-10-28T02:38:52.481Z,5.98
2022-10-28T02:41:24.374Z,6.02
2022-10-28T02:43:56.054Z,6.03
2022-10-28T02:46:25.823Z,6.05
2022-10-28T02:48:55.460Z,6.07
2022-10-28T02:51:30.724Z,6.10
2022-10-28T02:54:18.389Z,6.22
2022-10-28T02:56:52.802Z,6.26
2022-10-28T02:59:20.769Z,6.26
2022-10-28T03:01:48.582Z,6.27
2022-10-28T03:04:16.958Z,6.29
2022-10-28T03:06:44.711Z,6.34
2022-10-28T03:09:12.610Z,6.37
2022-10-28T03:11:40.327Z,6.39
2022-10-28T03:14:10.722Z,6.41
2022-10-28T03:16:41.014Z,6.39
2022-10-28T03:21:42.792Z,6.38
2022-10-28T03:24:10.972Z,6.53
2022-10-28T03:26:38.731Z,6.55
2022-10-28T03:29:07.083Z,6.54
2022-10-28T03:31:34.799Z,6.55
2022-10-28T03:34:02.941Z,6.57
2022-10-28T03:36:30.689Z,6.54
2022-10-28T03:38:58.980Z,6.56
2022-10-28T03:41:26.672Z,6.52
2022-10-28T03:43:54.951Z,6.56
2022-10-28T03:46:22.518Z,6.56
2022-10-28T03:48:50.806Z,6.57
2022-10-28T03:51:18.666Z,6.59
2022-10-28T03:53:48.312Z,6.58
2022-10-28T03:56:16.199Z,6.56
2022-10-28T03:58:44.712Z,6.53
2022-10-28T04:01:12.606Z,6.53
2022-10-28T04:03:41.202Z,6.54
2022-10-28T04:06:10.189Z,6.51
2022-10-28T04:08:38.848Z,6.50
2022-10-28T04:11:07.303Z,6.46
2022-10-28T04:13:36.054Z,6.45
2022-10-28T04:16:04.639Z,6.38
2022-10-28T04:18:32.850Z,6.35
2022-10-28T04:21:00.915Z,6.36
2022-10-28T04:23:29.738Z,6.32
2022-10-28T04:25:57.690Z,6.35
2022-10-28T04:28:26.142Z,6.31
2022-10-28T04:30:54.205Z,6.33
2022-10-28T04:33:22.664Z,6.31
2022-10-28T04:35:50.591Z,6.30
2022-10-28T04:38:18.633Z,6.22
2022-10-28T04:40:49.915Z,6.15
2022-10-28T04:43:17.944Z,6.08
2022-10-28T04:45:47.330Z,6.18
2022-10-28T04:48:15.879Z,6.14
2022-10-28T04:50:44.264Z,6.17
2022-10-28T04:53:12.714Z,6.14
2022-10-28T04:55:40.694Z,6.14
2022-10-28T04:58:10.678Z,6.05
2022-10-28T05:00:38.457Z,6.20
2022-10-28T05:03:06.644Z,6.36
2022-10-28T05:05:35.013Z,6.47
2022-10-28T05:08:03.383Z,6.53
2022-10-28T05:10:32.034Z,6.55
2022-10-28T05:13:00.611Z,6.50
2022-10-28T05:15:28.491Z,6.51
2022-10-28T05:17:56.658Z,6.57
2022-10-28T05:20:24.911Z,6.60
2022-10-28T05:22:55.380Z,6.58
2022-10-28T05:25:24.408Z,6.58
2022-10-28T05:27:52.922Z,6.56
2022-10-28T05:30:20.842Z,6.49
2022-10-28T05:32:51.560Z,6.51
2022-10-28T05:35:22.363Z,6.56
2022-10-28T05:37:50.808Z,6.59
2022-10-28T05:40:19.030Z,6.60
2022-10-28T05:42:47.373Z,6.62
2022-10-28T05:45:15.364Z,6.66
2022-10-28T05:47:47.908Z,6.63
2022-10-28T05:50:18.291Z,6.69
2022-10-28T05:52:50.986Z,6.72
2022-10-28T05:55:20.681Z,6.74
2022-10-28T05:57:50.478Z,6.80
2022-10-28T06:00:20.968Z,6.82
2022-10-28T06:02:49.014Z,6.84
2022-10-28T06:05:17.424Z,6.87
2022-10-28T06:07:45.640Z,6.94
2022-10-28T06:10:13.773Z,6.95
2022-10-28T06:12:42.521Z,7.01
2022-10-28T06:15:10.491Z,7.12
2022-10-28T06:17:39.005Z,7.17
2022-10-28T06:20:07.250Z,7.23
2022-10-28T06:22:35.819Z,7.30
2022-10-28T06:25:04.410Z,7.33
2022-10-28T06:27:34.615Z,7.38
2022-10-28T06:30:03.104Z,7.40
2022-10-28T06:32:31.817Z,7.50
2022-10-28T06:34:59.648Z,7.55
2022-10-28T06:37:28.223Z,7.64
2022-10-28T06:39:57.919Z,7.73
2022-10-28T06:42:26.651Z,7.82
2022-10-28T06:44:54.492Z,7.88
2022-10-28T06:47:24.617Z,7.87
2022-10-28T06:49:52.501Z,8.03
2022-10-28T06:52:20.763Z,8.17
2022-10-28T06:54:48.583Z,8.38
2022-10-28T06:57:16.591Z,8.59
2022-10-28T06:59:45.106Z,8.74
2022-10-28T07:02:21.946Z,8.86
2022-10-28T07:04:50.081Z,9.11
2022-10-28T07:07:18.515Z,9.23
2022-10-28T07:09:47.218Z,9.40
2022-10-28T07:12:15.290Z,9.62
2022-10-28T07:14:43.179Z,9.77
2022-10-28T07:17:11.012Z,9.89
2022-10-28T07:19:39.166Z,10.04
2022-10-28T07:22:07.036Z,10.20
2022-10-28T07:24:35.724Z,10.38
2022-10-28T07:27:03.730Z,10.62
2022-10-28T07:29:32.238Z,10.77
2022-10-28T07:32:00.301Z,10.92
2022-10-28T07:34:28.704Z,11.04
2022-10-28T07:36:57.418Z,11.25
2022-10-28T07:39:25.555Z,11.29
2022-10-28T07:41:53.430Z,11.32
2022-10-28T07:44:21.576Z,11.52
2022-10-28T07:46:51.914Z,11.73
2022-10-28T07:49:21.234Z,11.51
2022-10-28T07:51:51.221Z,11.51
2022-10-28T07:54:19.411Z,11.54
2022-10-28T07:56:47.270Z,11.76
2022-10-28T07:59:16.241Z,11.95
2022-10-28T08:01:44.044Z,12.07
2022-10-28T08:04:12.500Z,12.16
2022-10-28T08:06:40.595Z,12.28
2022-10-28T08:09:08.754Z,12.45
2022-10-28T08:11:36.818Z,12.79
2022-10-28T08:14:05.736Z,12.94
2022-10-28T08:16:33.587Z,13.02
2022-10-28T08:19:07.474Z,13.06
2022-10-28T08:21:35.752Z,13.10
2022-10-28T08:24:04.549Z,13.10
2022-10-28T08:26:32.383Z,13.07
2022-10-28T08:29:01.731Z,13.06
2022-10-28T08:31:32.735Z,13.11
2022-10-28T08:34:00.931Z,13.24
2022-10-28T08:36:28.861Z,13.58
2022-10-28T08:38:59.485Z,13.80
2022-10-28T08:41:45.989Z,13.89
2022-10-28T08:44:14.331Z,13.95
2022-10-28T08:46:57.978Z,14.10
2022-10-28T08:49:26.730Z,14.25
2022-10-28T08:52:05.315Z,14.40
2022-10-28T08:54:42.514Z,14.85
2022-10-28T08:57:18.119Z,15.46
2022-10-28T08:59:47.614Z,15.87
2022-10-28T09:02:24.220Z,16.29
2022-10-28T09:05:15.894Z,16.84
2022-10-28T09:07:43.770Z,17.01
2022-10-28T09:10:39.385Z,17.42
2022-10-28T09:13:31.715Z,17.89
2022-10-28T09:16:17.830Z,17.63
2022-10-28T09:18:52.531Z,17.17
2022-10-28T09:21:34.078Z,17.42
2022-10-28T09:24:14.635Z,17.49
2022-10-28T09:27:17.780Z,17.40
2022-10-28T09:30:41.584Z,17.21
2022-10-28T09:33:22.416Z,17.00
2022-10-28T09:35:51.746Z,16.75
2022-10-28T09:38:35.280Z,16.40
2022-10-28T09:41:26.168Z,16.05
2022-10-28T09:44:31.293Z,15.95
2022-10-28T09:47:01.423Z,15.89
2022-10-28T09:49:32.049Z,15.92
2022-10-28T09:52:08.550Z,15.98
2022-10-28T09:54:42.796Z,16.09
2022-10-28T09:57:13.721Z,15.98
2022-10-28T09:59:44.540Z,15.93
2022-10-28T10:02:39.006Z,16.09
2022-10-28T10:05:16.822Z,16.06
2022-10-28T10:08:05.763Z,16.12
2022-10-28T10:10:48.659Z,16.06
2022-10-28T10:13:23.056Z,16.25
2022-10-28T10:15:53.644Z,16.24
2022-10-28T10:18:31.270Z,16.23
2022-10-28T10:21:00.185Z,16.26
2022-10-28T10:23:36.337Z,16.24
2022-10-28T10:26:22.064Z,16.25
2022-10-28T10:28:51.531Z,16.40
2022-10-28T10:31:39.497Z,16.40
2022-10-28T10:34:27.868Z,16.41
2022-10-28T10:36:56.647Z,16.52
2022-10-28T10:39:42.932Z,16.72
2022-10-28T10:42:29.450Z,16.66
2022-10-28T10:45:27.842Z,16.83
2022-10-28T10:48:16.253Z,16.93
2022-10-28T10:50:46.105Z,17.02
2022-10-28T10:53:26.549Z,16.95
2022-10-28T10:55:59.536Z,17.01
2022-10-28T10:58:52.168Z,17.07
2022-10-28T11:01:23.902Z,17.21
2022-10-28T11:04:17.816Z,17.25
2022-10-28T11:06:50.481Z,17.36
2022-10-28T11:09:37.477Z,17.51
2022-10-28T11:12:26.578Z,17.65
2022-10-28T11:15:20.114Z,17.69
2022-10-28T11:18:17.495Z,17.71
2022-10-28T11:20:54.256Z,17.79
2022-10-28T11:23:51.176Z,17.83
2022-10-28T11:26:43.687Z,17.85
2022-10-28T11:29:16.315Z,18.06
2022-10-28T11:31:55.932Z,18.08
2022-10-28T11:34:40.484Z,18.12
2022-10-28T11:37:29.782Z,18.18
2022-10-28T11:40:22.853Z,18.27
2022-10-28T11:43:22.509Z,18.30
2022-10-28T11:46:03.842Z,18.13
2022-10-28T11:49:02.231Z,18.24
2022-10-28T11:52:18.010Z,18.43
2022-10-28T11:54:59.609Z,18.49
2022-10-28T11:58:07.002Z,18.45
2022-10-28T12:00:41.565Z,18.47
2022-10-28T12:03:47.422Z,18.43
2022-10-28T12:06:23.594Z,18.43
2022-10-28T12:09:10.446Z,18.48
2022-10-28T12:12:25.771Z,18.44
2022-10-28T12:15:15.254Z,18.53
2022-10-28T12:18:06.561Z,18.57
2022-10-28T12:21:17.852Z,18.64
2022-10-28T12:23:45.755Z,18.72
2022-10-28T12:26:16.213Z,18.72
2022-10-28T12:29:04.408Z,18.74
2022-10-28T12:31:44.598Z,18.85
2022-10-28T12:34:16.599Z,18.92
2022-10-28T12:36:45.118Z,18.88
2022-10-28T12:39:57.096Z,18.85
2022-10-28T12:42:46.678Z,18.79
2022-10-28T12:45:18.436Z,18.81
2022-10-28T12:47:50.767Z,18.81
2022-10-28T12:50:40.477Z,18.92
2022-10-28T12:54:04.229Z,18.89
2022-10-28T12:56:37.415Z,18.96
2022-10-28T12:59:28.230Z,18.90
2022-10-28T13:01:56.856Z,18.89
2022-10-28T13:04:24.788Z,18.84
2022-10-28T13:07:22.785Z,18.79
2022-10-28T13:09:57.519Z,18.92
2022-10-28T13:12:48.747Z,18.95
2022-10-28T13:15:46.164Z,18.85
2022-10-28T13:18:29.376Z,18.82
2022-10-28T13:21:18.467Z,18.80
2022-10-28T13:24:25.345Z,18.79
2022-10-28T13:26:54.799Z,18.71
2022-10-28T13:29:43.549Z,18.71
2022-10-28T13:32:38.358Z,18.64
2022-10-28T13:35:12.962Z,18.60
2022-10-28T13:37:41.697Z,18.55
2022-10-28T13:40:30.815Z,18.48
2022-10-28T13:43:22.043Z,18.34
2022-10-28T13:45:56.064Z,18.23
2022-10-28T13:48:29.857Z,18.17
2022-10-28T13:51:10.347Z,18.11
2022-10-28T13:53:54.699Z,18.02
2022-10-28T13:56:41.558Z,17.91
2022-10-28T13:59:14.986Z,17.83
2022-10-28T14:02:02.008Z,17.72
2022-10-28T14:05:00.562Z,17.65
2022-10-28T14:07:32.032Z,17.64
2022-10-28T14:10:24.334Z,17.58
2022-10-28T14:12:59.624Z,17.53
2022-10-28T14:15:48.519Z,17.39
2022-10-28T14:18:42.318Z,17.22
2022-10-28T14:21:08.465Z,17.06
2022-10-28T14:23:50.149Z,17.00
2022-10-28T14:27:15.936Z,16.85
2022-10-28T14:30:09.110Z,16.76
2022-10-28T14:33:01.910Z,16.68
2022-10-28T14:35:49.970Z,16.54
2022-10-28T14:38:36.756Z,16.51
2022-10-28T14:41:35.867Z,16.48
2022-10-28T14:44:06.329Z,16.41
2022-10-28T14:47:03.313Z,16.37
2022-10-28T14:49:32.290Z,16.36
2022-10-28T14:52:18.947Z,16.38
2022-10-28T14:54:51.152Z,16.32
2022-10-28T14:57:37.499Z,16.31
2022-10-28T15:00:07.476Z,16.31
2022-10-28T15:02:39.127Z,16.28
2022-10-28T15:05:18.509Z,16.31
2022-10-28T15:07:47.363Z,16.22
2022-10-28T15:10:39.313Z,16.18
2022-10-28T15:13:17.056Z,16.22
2022-10-28T15:15:59.485Z,16.17
2022-10-28T15:18:50.996Z,16.11
2022-10-28T15:21:21.712Z,16.08
2022-10-28T15:24:03.213Z,16.01
2022-10-28T15:26:31.203Z,16.04
2022-10-28T15:28:59.611Z,15.96
2022-10-28T15:31:28.136Z,15.97
2022-10-28T15:34:21.706Z,15.92
2022-10-28T15:36:50.452Z,15.91
2022-10-28T15:39:19.103Z,15.91
2022-10-28T15:42:27.258Z,15.86
2022-10-28T15:44:57.055Z,15.87
2022-10-28T15:47:45.482Z,15.75
2022-10-28T15:50:32.806Z,15.81
2022-10-28T15:53:10.242Z,15.83
2022-10-28T15:56:06.984Z,15.82
2022-10-28T15:58:36.121Z,15.88
2022-10-28T16:01:05.280Z,15.84
2022-10-28T16:03:47.563Z,15.86
2022-10-28T16:06:24.293Z,15.83
2022-10-28T16:09:19.429Z,15.81
2022-10-28T16:11:58.009Z,15.84
2022-10-28T16:15:03.187Z,15.85
2022-10-28T16:17:34.069Z,15.79
2022-10-28T16:20:18.324Z,15.87
2022-10-28T16:22:48.841Z,15.82
2022-10-28T16:25:20.814Z,15.88
2022-10-28T16:27:50.554Z,15.84
2022-10-28T16:30:19.179Z,15.86
2022-10-28T16:32:49.162Z,15.88
2022-10-28T16:35:22.006Z,15.89
2022-10-28T16:37:55.051Z,15.88
2022-10-28T16:40:52.677Z,15.97
2022-10-28T16:43:31.121Z,15.98
2022-10-28T16:46:00.791Z,15.99
2022-10-28T16:48:30.698Z,15.95
2022-10-28T16:51:10.826Z,15.97
2022-10-28T16:53:39.239Z,15.99
2022-10-28T16:56:13.618Z,15.97
2022-10-28T16:58:43.052Z,16.01
2022-10-28T17:01:12.760Z,16.00
2022-10-28T17:03:40.645Z,15.90
2022-10-28T17:06:10.602Z,15.96
2022-10-28T17:11:26.883Z,15.89
2022-10-28T17:13:54.735Z,15.86
2022-10-28T17:16:22.958Z,15.80
2022-10-28T17:18:50.679Z,15.79
2022-10-28T17:21:18.961Z,15.76
2022-10-28T17:23:47.137Z,15.72
2022-10-28T17:26:33.234Z,15.67
2022-10-28T17:29:01.585Z,15.62
2022-10-28T17:31:30.058Z,15.54
2022-10-28T17:34:16.168Z,15.49
2022-10-28T17:36:44.694Z,15.46
2022-10-28T17:39:17.775Z,15.42
2022-10-28T17:41:48.429Z,15.37
2022-10-28T17:44:34.854Z,15.27
2022-10-28T17:47:03.175Z,15.27
2022-10-28T17:49:49.305Z,15.21
2022-10-28T17:52:17.468Z,15.28
2022-10-28T17:55:03.385Z,15.21
2022-10-28T17:57:31.686Z,15.26
2022-10-28T17:59:59.879Z,15.17
2022-10-28T18:02:28.114Z,15.20
2022-10-28T18:04:55.937Z,15.16
2022-10-28T18:07:24.157Z,15.12
2022-10-28T18:09:52.116Z,15.07
2022-10-28T18:12:20.629Z,15.01
2022-10-28T18:14:48.434Z,14.98
2022-10-28T18:17:18.133Z,14.97
2022-10-28T18:19:45.876Z,14.97
2022-10-28T18:22:14.660Z,14.94
2022-10-28T18:24:42.532Z,14.90
2022-10-28T18:27:11.155Z,14.88
2022-10-28T18:29:39.416Z,14.85
2022-10-28T18:32:07.312Z,14.80
2022-10-28T18:34:35.943Z,14.75
2022-10-28T18:37:07.910Z,14.74
2022-10-28T18:39:36.227Z,14.68
2022-10-28T18:42:04.633Z,14.74
2022-10-28T18:44:32.425Z,14.74
2022-10-28T18:47:00.975Z,14.74
2022-10-28T18:49:28.601Z,14.74
2022-10-28T18:51:56.932Z,14.76
2022-10-28T18:54:43.042Z,14.76
2022-10-28T18:57:11.174Z,14.74
2022-10-28T18:59:52.420Z,14.71
2022-10-28T19:02:29.067Z,14.76
2022-10-28T19:04:58.613Z,14.85
2022-10-28T19:07:26.661Z,14.85
2022-10-28T19:09:55.183Z,14.89
2022-10-28T19:12:23.051Z,15.01
2022-10-28T19:14:51.594Z,15.01
2022-10-28T19:17:20.487Z,15.00
2022-10-28T19:19:49.473Z,15.01
2022-10-28T19:22:18.929Z,15.00
2022-10-28T19:24:47.528Z,14.98
2022-10-28T19:27:16.101Z,15.02
2022-10-28T19:30:06.576Z,15.01
2022-10-28T19:32:39.232Z,15.00
2022-10-28T19:35:07.880Z,14.97
2022-10-28T19:37:36.588Z,14.97
2022-10-28T19:40:05.287Z,14.97
2022-10-28T19:42:33.598Z,14.95
2022-10-28T19:45:04.012Z,14.93
2022-10-28T19:47:32.567Z,14.88
2022-10-28T19:50:00.476Z,14.83
2022-10-28T19:52:28.964Z,14.79
2022-10-28T19:54:57.625Z,14.75
2022-10-28T19:57:45.682Z,14.71
2022-10-28T20:00:16.051Z,14.66
2022-10-28T20:02:43.985Z,14.58
2022-10-28T20:05:12.665Z,14.53
2022-10-28T20:07:41.235Z,14.49
2022-10-28T20:10:10.258Z,14.43
2022-10-28T20:12:38.454Z,14.34
2022-10-28T20:15:08.138Z,14.28
2022-10-28T20:17:36.835Z,14.23
2022-10-28T20:20:05.554Z,14.16
2022-10-28T20:22:51.964Z,14.08
2022-10-28T20:25:20.037Z,13.95
2022-10-28T20:27:49.833Z,13.95
2022-10-28T20:30:18.216Z,13.90
2022-10-28T20:32:49.720Z,13.90
2022-10-28T20:35:21.100Z,13.94
2022-10-28T20:37:54.194Z,14.07
2022-10-28T20:40:22.675Z,14.19
2022-10-28T20:42:50.846Z,14.20
2022-10-28T20:45:18.770Z,14.17
2022-10-28T20:47:47.422Z,14.33
2022-10-28T20:50:15.231Z,14.38
2022-10-28T20:52:43.378Z,14.35
2022-10-28T20:55:29.320Z,14.43
2022-10-28T20:57:57.429Z,14.39
2022-10-28T21:00:25.649Z,14.40
2022-10-28T21:02:55.041Z,14.41
2022-10-28T21:05:23.375Z,14.39
2022-10-28T21:08:10.633Z,14.37
2022-10-28T21:10:40.253Z,14.38
2022-10-28T21:13:09.146Z,14.38
2022-10-28T21:15:39.053Z,14.35
2022-10-28T21:18:08.419Z,14.33
2022-10-28T21:20:37.715Z,14.29
2022-10-28T21:23:06.676Z,14.36
2022-10-28T21:25:34.680Z,14.36
2022-10-28T21:28:02.542Z,14.37
2022-10-28T21:30:30.941Z,14.38
2022-10-28T21:32:58.841Z,14.42
2022-10-28T21:35:27.569Z,14.36
2022-10-28T21:37:56.719Z,14.35
2022-10-28T21:40:25.200Z,14.32
2022-10-28T21:42:53.673Z,14.34
2022-10-28T21:45:39.587Z,14.26
2022-10-28T21:48:26.599Z,14.23
2022-10-28T21:51:15.172Z,14.20
2022-10-28T21:53:45.010Z,14.19
2022-10-28T21:56:18.107Z,14.20
2022-10-28T21:58:49.095Z,14.15
2022-10-28T22:01:25.689Z,14.13
2022-10-28T22:04:12.397Z,14.11
2022-10-28T22:06:40.875Z,14.11
2022-10-28T22:09:08.877Z,14.06
2022-10-28T22:11:37.455Z,14.03
2022-10-28T22:14:23.247Z,14.03
2022-10-28T22:16:51.615Z,13.98
2022-10-28T22:19:19.750Z,13.96
2022-10-28T22:22:05.864Z,13.93
2022-10-28T22:24:34.355Z,13.98
2022-10-28T22:27:02.335Z,14.00
2022-10-28T22:29:48.124Z,13.99
2022-10-28T22:32:35.201Z,13.94
2022-10-28T22:35:03.824Z,14.02
2022-10-28T22:37:31.646Z,14.05
2022-10-28T22:39:59.674Z,14.07
2022-10-28T22:42:27.997Z,14.10
2022-10-28T22:44:55.872Z,14.09
2022-10-28T22:47:24.502Z,14.13
2022-10-28T22:49:52.294Z,14.20
2022-10-28T22:52:20.533Z,14.15
2022-10-28T22:55:07.464Z,14.26
2022-10-28T22:57:36.133Z,14.32
2022-10-28T23:00:04.950Z,14.35
2022-10-28T23:02:51.401Z,14.26
2022-10-28T23:05:19.978Z,14.30
2022-10-28T23:07:47.835Z,14.32
2022-10-28T23:10:34.298Z,14.34
2022-10-28T23:13:03.114Z,14.31
2022-10-28T23:15:30.874Z,14.28
2022-10-28T23:17:58.934Z,14.29
2022-10-28T23:20:45.157Z,14.28
2022-10-28T23:23:13.874Z,14.24
2022-10-28T23:25:41.717Z,14.23
2022-10-28T23:28:27.441Z,14.19
2022-10-28T23:31:17.641Z,14.16
2022-10-28T23:33:45.720Z,14.12
2022-10-28T23:36:35.034Z,14.06
2022-10-28T23:39:03.561Z,14.00
2022-10-28T23:41:31.586Z,13.93
2022-10-28T23:44:01.022Z,13.87
2022-10-28T23:46:32.310Z,13.82
2022-10-28T23:49:02.725Z,13.78
2022-10-28T23:51:31.231Z,13.78
2022-10-28T23:53:59.180Z,13.73
2022-10-28T23:56:26.976Z,13.72
2022-10-28T23:58:55.203Z,13.69
